sensor_id;sensor_type;location;lat;lon;timestamp;pressure;altitude;pressure_sealevel;temperature;humidity
51195;BME280;37259;49.972;19.850;2023-03-24T00:00:11;98220;;;15.3;57.4
51195;BME280;37259;49.972;19.850;2023-03-24T00:01:10;98210;;;15.2;57.7
51195;BME280;37259;49.972;19.850;2023-03-24T00:02:09;98210;;;15.2;57.7
51195;BME280;37259;49.972;19.850;2023-03-24T00:03:09;98220;;;15.3;57.6
51195;BME280;37259;49.972;19.850;2023-03-24T00:04:09;98210;;;15.3;57.7
51195;BME280;37259;49.972;19.850;2023-03-24T00:05:10;98210;;;15.3;57.6
51195;BME280;37259;49.972;19.850;2023-03-24T00:06:10;98210;;;15.3;57.6
51195;BME280;37259;49.972;19.850;2023-03-24T00:07:09;98210;;;15.3;57.6
51195;BME280;37259;49.972;19.850;2023-03-24T00:08:09;98210;;;15.3;57.6
51195;BME280;37259;49.972;19.850;2023-03-24T00:09:09;98210;;;15.3;57.6
51195;BME280;37259;49.972;19.850;2023-03-24T00:10:11;98210;;;15.3;57.5
51195;BME280;37259;49.972;19.850;2023-03-24T00:11:10;98210;;;15.3;57.5
51195;BME280;37259;49.972;19.850;2023-03-24T00:12:10;98210;;;15.3;57.5
51195;BME280;37259;49.972;19.850;2023-03-24T00:13:09;98210;;;15.3;57.5
51195;BME280;37259;49.972;19.850;2023-03-24T00:14:10;98210;;;15.3;57.6
51195;BME280;37259;49.972;19.850;2023-03-24T00:15:10;98210;;;15.3;57.4
51195;BME280;37259;49.972;19.850;2023-03-24T00:16:11;98210;;;15.3;57.7
51195;BME280;37259;49.972;19.850;2023-03-24T00:17:09;98210;;;15.3;57.7
51195;BME280;37259;49.972;19.850;2023-03-24T00:18:09;98210;;;15.3;57.5
51195;BME280;37259;49.972;19.850;2023-03-24T00:19:10;98210;;;15.3;57.5
51195;BME280;37259;49.972;19.850;2023-03-24T00:20:10;98210;;;15.3;57.8
51195;BME280;37259;49.972;19.850;2023-03-24T00:21:10;98210;;;15.3;57.8
51195;BME280;37259;49.972;19.850;2023-03-24T00:22:10;98210;;;15.3;57.6
51195;BME280;37259;49.972;19.850;2023-03-24T00:23:09;98210;;;15.3;57.4
51195;BME280;37259;49.972;19.850;2023-03-24T00:24:10;98210;;;15.4;57.3
51195;BME280;37259;49.972;19.850;2023-03-24T00:25:10;98210;;;15.4;57.3
51195;BME280;37259;49.972;19.850;2023-03-24T00:26:10;98220;;;15.4;57.2
51195;BME280;37259;49.972;19.850;2023-03-24T00:27:09;98220;;;15.4;57.3
51195;BME280;37259;49.972;19.850;2023-03-24T00:28:09;98220;;;15.4;57.3
51195;BME280;37259;49.972;19.850;2023-03-24T00:29:09;98220;;;15.4;57.1
51195;BME280;37259;49.972;19.850;2023-03-24T00:30:10;98220;;;15.4;57.1
51195;BME280;37259;49.972;19.850;2023-03-24T00:31:10;98220;;;15.4;57.4
51195;BME280;37259;49.972;19.850;2023-03-24T00:32:09;98220;;;15.4;57.3
51195;BME280;37259;49.972;19.850;2023-03-24T00:33:09;98220;;;15.4;57.3
51195;BME280;37259;49.972;19.850;2023-03-24T00:34:09;98220;;;15.4;57.3
51195;BME280;37259;49.972;19.850;2023-03-24T00:35:10;98220;;;15.4;57.3
51195;BME280;37259;49.972;19.850;2023-03-24T00:36:10;98220;;;15.4;57.3
51195;BME280;37259;49.972;19.850;2023-03-24T00:37:09;98210;;;15.4;57.4
51195;BME280;37259;49.972;19.850;2023-03-24T00:38:09;98210;;;15.4;57.6
51195;BME280;37259;49.972;19.850;2023-03-24T00:39:09;98210;;;15.4;57.6
51195;BME280;37259;49.972;19.850;2023-03-24T00:40:10;98210;;;15.4;57.7
51195;BME280;37259;49.972;19.850;2023-03-24T00:41:09;98210;;;15.4;57.4
51195;BME280;37259;49.972;19.850;2023-03-24T00:42:09;98210;;;15.3;57.6
51195;BME280;37259;49.972;19.850;2023-03-24T00:43:09;98210;;;15.3;57.6
51195;BME280;37259;49.972;19.850;2023-03-24T00:44:10;98210;;;15.3;57.8
51195;BME280;37259;49.972;19.850;2023-03-24T00:45:10;98200;;;15.3;57.5
51195;BME280;37259;49.972;19.850;2023-03-24T00:46:11;98200;;;15.3;57.5
51195;BME280;37259;49.972;19.850;2023-03-24T00:47:09;98200;;;15.3;57.4
51195;BME280;37259;49.972;19.850;2023-03-24T00:48:09;98200;;;15.3;57.5
51195;BME280;37259;49.972;19.850;2023-03-24T00:49:09;98200;;;15.3;57.5
51195;BME280;37259;49.972;19.850;2023-03-24T00:50:12;98190;;;15.3;57.4
51195;BME280;37259;49.972;19.850;2023-03-24T00:51:10;98190;;;15.3;57.2
51195;BME280;37259;49.972;19.850;2023-03-24T00:52:10;98190;;;15.3;57.3
51195;BME280;37259;49.972;19.850;2023-03-24T00:53:09;98190;;;15.3;57.3
51195;BME280;37259;49.972;19.850;2023-03-24T00:54:10;98190;;;15.3;57.2
51195;BME280;37259;49.972;19.850;2023-03-24T00:55:10;98190;;;15.3;57.3
51195;BME280;37259;49.972;19.850;2023-03-24T00:56:09;98190;;;15.3;57.3
51195;BME280;37259;49.972;19.850;2023-03-24T00:57:09;98190;;;15.3;57.2
51195;BME280;37259;49.972;19.850;2023-03-24T00:58:09;98190;;;15.3;57.1
51195;BME280;37259;49.972;19.850;2023-03-24T00:59:09;98180;;;15.3;57.2
51195;BME280;37259;49.972;19.850;2023-03-24T01:00:10;98180;;;15.3;57.2
51195;BME280;37259;49.972;19.850;2023-03-24T01:01:09;98180;;;15.3;57.2
51195;BME280;37259;49.972;19.850;2023-03-24T01:02:10;98180;;;15.3;57.2
51195;BME280;37259;49.972;19.850;2023-03-24T01:03:09;98190;;;15.3;57.3
51195;BME280;37259;49.972;19.850;2023-03-24T01:04:09;98190;;;15.3;57.3
51195;BME280;37259;49.972;19.850;2023-03-24T01:05:09;98180;;;15.3;57.5
51195;BME280;37259;49.972;19.850;2023-03-24T01:06:09;98190;;;15.3;57.4
51195;BME280;37259;49.972;19.850;2023-03-24T01:07:10;98190;;;15.3;57.4
51195;BME280;37259;49.972;19.850;2023-03-24T01:08:09;98190;;;15.2;57.4
51195;BME280;37259;49.972;19.850;2023-03-24T01:09:09;98190;;;15.2;57.4
51195;BME280;37259;49.972;19.850;2023-03-24T01:10:11;98190;;;15.2;57.7
51195;BME280;37259;49.972;19.850;2023-03-24T01:11:10;98190;;;15.2;57.7
51195;BME280;37259;49.972;19.850;2023-03-24T01:12:10;98180;;;15.2;57.9
51195;BME280;37259;49.972;19.850;2023-03-24T01:13:09;98180;;;15.1;57.8
51195;BME280;37259;49.972;19.850;2023-03-24T01:14:10;98180;;;15.1;57.8
51195;BME280;37259;49.972;19.850;2023-03-24T01:15:11;98180;;;15.1;57.8
51195;BME280;37259;49.972;19.850;2023-03-24T01:16:09;98180;;;15.1;58.1
51195;BME280;37259;49.972;19.850;2023-03-24T01:17:09;98180;;;15.1;58.1
51195;BME280;37259;49.972;19.850;2023-03-24T01:18:09;98180;;;15.1;58.2
51195;BME280;37259;49.972;19.850;2023-03-24T01:19:09;98180;;;15.1;58.2
51195;BME280;37259;49.972;19.850;2023-03-24T01:20:10;98180;;;15.1;58.5
51195;BME280;37259;49.972;19.850;2023-03-24T01:21:10;98180;;;15;58.6
51195;BME280;37259;49.972;19.850;2023-03-24T01:22:09;98180;;;15;58.3
51195;BME280;37259;49.972;19.850;2023-03-24T01:23:10;98180;;;15;58.3
51195;BME280;37259;49.972;19.850;2023-03-24T01:24:09;98170;;;15;58.1
51195;BME280;37259;49.972;19.850;2023-03-24T01:25:10;98170;;;15;58.1
51195;BME280;37259;49.972;19.850;2023-03-24T01:26:09;98170;;;15.1;58.2
51195;BME280;37259;49.972;19.850;2023-03-24T01:27:09;98170;;;15.1;58.2
51195;BME280;37259;49.972;19.850;2023-03-24T01:28:10;98170;;;15.1;58.2
51195;BME280;37259;49.972;19.850;2023-03-24T01:29:09;98170;;;15.1;58
51195;BME280;37259;49.972;19.850;2023-03-24T01:30:10;98170;;;15.1;58
51195;BME280;37259;49.972;19.850;2023-03-24T01:31:10;98170;;;15.1;58.2
51195;BME280;37259;49.972;19.850;2023-03-24T01:32:09;98170;;;15.1;58.2
51195;BME280;37259;49.972;19.850;2023-03-24T01:33:09;98170;;;15;58.4
51195;BME280;37259;49.972;19.850;2023-03-24T01:34:09;98170;;;15;58.4
51195;BME280;37259;49.972;19.850;2023-03-24T01:35:10;98170;;;15;58.4
51195;BME280;37259;49.972;19.850;2023-03-24T01:36:09;98170;;;15;58.4
51195;BME280;37259;49.972;19.850;2023-03-24T01:37:09;98170;;;15.1;58.2
51195;BME280;37259;49.972;19.850;2023-03-24T01:38:10;98170;;;15.1;58.2
51195;BME280;37259;49.972;19.850;2023-03-24T01:39:09;98170;;;15.1;58.2
51195;BME280;37259;49.972;19.850;2023-03-24T01:40:10;98160;;;15.1;58.4
51195;BME280;37259;49.972;19.850;2023-03-24T01:41:09;98160;;;15.1;58.4
51195;BME280;37259;49.972;19.850;2023-03-24T01:42:10;98170;;;15.1;58.4
51195;BME280;37259;49.972;19.850;2023-03-24T01:43:15;98160;;;15.1;58.5
51195;BME280;37259;49.972;19.850;2023-03-24T01:44:27;98160;;;15.1;58.5
51195;BME280;37259;49.972;19.850;2023-03-24T01:45:43;98160;;;15.1;58.4
51195;BME280;37259;49.972;19.850;2023-03-24T01:46:14;98160;;;15.1;58.3
51195;BME280;37259;49.972;19.850;2023-03-24T01:47:09;98160;;;15.1;58.3
51195;BME280;37259;49.972;19.850;2023-03-24T01:48:11;98160;;;15.1;58.4
51195;BME280;37259;49.972;19.850;2023-03-24T01:49:09;98160;;;15.1;58.4
51195;BME280;37259;49.972;19.850;2023-03-24T01:50:10;98160;;;15.1;58.4
51195;BME280;37259;49.972;19.850;2023-03-24T01:51:11;98160;;;15.1;58.6
51195;BME280;37259;49.972;19.850;2023-03-24T01:52:10;98160;;;15.1;58.6
51195;BME280;37259;49.972;19.850;2023-03-24T01:53:09;98160;;;15.1;58.5
51195;BME280;37259;49.972;19.850;2023-03-24T01:54:11;98160;;;15.1;58.5
51195;BME280;37259;49.972;19.850;2023-03-24T01:55:10;98160;;;15.1;58.5
51195;BME280;37259;49.972;19.850;2023-03-24T01:56:10;98160;;;15.1;58.5
51195;BME280;37259;49.972;19.850;2023-03-24T01:57:10;98160;;;15.1;58.5
51195;BME280;37259;49.972;19.850;2023-03-24T01:58:09;98160;;;15.1;58.7
51195;BME280;37259;49.972;19.850;2023-03-24T01:59:16;98160;;;15.1;58.5
51195;BME280;37259;49.972;19.850;2023-03-24T02:00:10;98160;;;15.1;58.5
51195;BME280;37259;49.972;19.850;2023-03-24T02:01:10;98160;;;15.1;58.5
51195;BME280;37259;49.972;19.850;2023-03-24T02:02:09;98160;;;15.2;58.3
51195;BME280;37259;49.972;19.850;2023-03-24T02:03:11;98160;;;15.2;58.3
51195;BME280;37259;49.972;19.850;2023-03-24T02:04:09;98160;;;15.2;58.4
51195;BME280;37259;49.972;19.850;2023-03-24T02:05:10;98160;;;15.2;58.4
51195;BME280;37259;49.972;19.850;2023-03-24T02:06:10;98160;;;15.2;58.4
51195;BME280;37259;49.972;19.850;2023-03-24T02:07:11;98160;;;15.2;58.4
51195;BME280;37259;49.972;19.850;2023-03-24T02:08:12;98160;;;15.2;58.4
51195;BME280;37259;49.972;19.850;2023-03-24T02:09:11;98160;;;15.2;58.4
51195;BME280;37259;49.972;19.850;2023-03-24T02:10:10;98160;;;15.2;58.4
51195;BME280;37259;49.972;19.850;2023-03-24T02:11:09;98160;;;15.2;58.4
51195;BME280;37259;49.972;19.850;2023-03-24T02:12:09;98160;;;15.2;58.5
51195;BME280;37259;49.972;19.850;2023-03-24T02:13:10;98160;;;15.2;58.5
51195;BME280;37259;49.972;19.850;2023-03-24T02:14:10;98150;;;15.1;58.4
51195;BME280;37259;49.972;19.850;2023-03-24T02:15:10;98150;;;15.1;58.4
51195;BME280;37259;49.972;19.850;2023-03-24T02:16:12;98150;;;15.1;58.4
51195;BME280;37259;49.972;19.850;2023-03-24T02:17:13;98150;;;15.1;58.5
51195;BME280;37259;49.972;19.850;2023-03-24T02:18:12;98150;;;15.1;58.5
51195;BME280;37259;49.972;19.850;2023-03-24T02:19:17;98150;;;15.2;58.4
51195;BME280;37259;49.972;19.850;2023-03-24T02:20:17;98150;;;15.2;58.4
51195;BME280;37259;49.972;19.850;2023-03-24T02:22:19;98150;;;15.1;58.4
51195;BME280;37259;49.972;19.850;2023-03-24T02:24:16;98150;;;15.1;58.5
51195;BME280;37259;49.972;19.850;2023-03-24T02:25:22;98140;;;15.1;58.5
51195;BME280;37259;49.972;19.850;2023-03-24T02:26:20;98140;;;15.1;58.5
51195;BME280;37259;49.972;19.850;2023-03-24T02:27:14;98140;;;15.1;58.5
51195;BME280;37259;49.972;19.850;2023-03-24T02:28:14;98140;;;15.1;58.5
51195;BME280;37259;49.972;19.850;2023-03-24T02:29:16;98140;;;15.1;58.6
51195;BME280;37259;49.972;19.850;2023-03-24T02:30:14;98140;;;15.1;58.6
51195;BME280;37259;49.972;19.850;2023-03-24T02:31:15;98140;;;15.1;58.6
51195;BME280;37259;49.972;19.850;2023-03-24T02:32:22;98140;;;15.1;58.6
51195;BME280;37259;49.972;19.850;2023-03-24T02:33:47;98140;;;15.1;58.5
51195;BME280;37259;49.972;19.850;2023-03-24T02:34:47;98140;;;15.1;58.5
51195;BME280;37259;49.972;19.850;2023-03-24T02:35:15;98140;;;15.1;58.5
51195;BME280;37259;49.972;19.850;2023-03-24T02:36:23;98140;;;15.1;58.5
51195;BME280;37259;49.972;19.850;2023-03-24T02:37:19;98130;;;15.1;58.7
51195;BME280;37259;49.972;19.850;2023-03-24T02:39:44;98130;;;15.1;58.6
51195;BME280;37259;49.972;19.850;2023-03-24T02:40:13;98140;;;15.1;58.6
51195;BME280;37259;49.972;19.850;2023-03-24T02:41:10;98140;;;15.1;58.6
51195;BME280;37259;49.972;19.850;2023-03-24T02:42:12;98130;;;15.1;58.7
51195;BME280;37259;49.972;19.850;2023-03-24T02:43:14;98130;;;15.1;58.7
51195;BME280;37259;49.972;19.850;2023-03-24T02:44:10;98130;;;15.1;58.9
51195;BME280;37259;49.972;19.850;2023-03-24T02:45:14;98130;;;15.1;58.8
51195;BME280;37259;49.972;19.850;2023-03-24T02:46:10;98130;;;15.1;58.8
51195;BME280;37259;49.972;19.850;2023-03-24T02:47:11;98130;;;15;58.8
51195;BME280;37259;49.972;19.850;2023-03-24T02:48:15;98130;;;15;58.6
51195;BME280;37259;49.972;19.850;2023-03-24T02:49:13;98130;;;15.1;58.6
51195;BME280;37259;49.972;19.850;2023-03-24T02:50:13;98130;;;15.1;58.6
51195;BME280;37259;49.972;19.850;2023-03-24T02:51:10;98130;;;15.1;58.8
51195;BME280;37259;49.972;19.850;2023-03-24T02:52:11;98130;;;15.1;58.8
51195;BME280;37259;49.972;19.850;2023-03-24T02:53:10;98130;;;15;58.8
51195;BME280;37259;49.972;19.850;2023-03-24T02:54:10;98130;;;15;58.8
51195;BME280;37259;49.972;19.850;2023-03-24T02:55:11;98120;;;15;58.9
51195;BME280;37259;49.972;19.850;2023-03-24T02:56:10;98120;;;15;58.9
51195;BME280;37259;49.972;19.850;2023-03-24T02:57:11;98120;;;15.1;58.9
51195;BME280;37259;49.972;19.850;2023-03-24T02:58:10;98120;;;15.1;58.7
51195;BME280;37259;49.972;19.850;2023-03-24T02:59:10;98120;;;15.1;58.9
51195;BME280;37259;49.972;19.850;2023-03-24T03:00:11;98120;;;15.1;58.8
51195;BME280;37259;49.972;19.850;2023-03-24T03:01:10;98120;;;15.1;58.8
51195;BME280;37259;49.972;19.850;2023-03-24T03:02:11;98120;;;15.1;58.9
51195;BME280;37259;49.972;19.850;2023-03-24T03:03:10;98120;;;15.1;58.9
51195;BME280;37259;49.972;19.850;2023-03-24T03:04:10;98120;;;15.1;58.6
51195;BME280;37259;49.972;19.850;2023-03-24T03:05:10;98120;;;15.1;58.8
51195;BME280;37259;49.972;19.850;2023-03-24T03:06:10;98120;;;15.1;58.9
51195;BME280;37259;49.972;19.850;2023-03-24T03:07:09;98120;;;15.1;58.9
51195;BME280;37259;49.972;19.850;2023-03-24T03:08:11;98110;;;15;59.3
51195;BME280;37259;49.972;19.850;2023-03-24T03:09:10;98110;;;15;59.7
51195;BME280;37259;49.972;19.850;2023-03-24T03:10:12;98110;;;15;59.6
51195;BME280;37259;49.972;19.850;2023-03-24T03:11:11;98110;;;15;59.6
51195;BME280;37259;49.972;19.850;2023-03-24T03:12:10;98110;;;15;60
51195;BME280;37259;49.972;19.850;2023-03-24T03:13:10;98110;;;15;60
51195;BME280;37259;49.972;19.850;2023-03-24T03:14:10;98100;;;15;59.6
51195;BME280;37259;49.972;19.850;2023-03-24T03:15:10;98100;;;15;59.7
51195;BME280;37259;49.972;19.850;2023-03-24T03:16:12;98100;;;15;59.8
51195;BME280;37259;49.972;19.850;2023-03-24T03:17:11;98100;;;15;59.8
51195;BME280;37259;49.972;19.850;2023-03-24T03:18:12;98100;;;15;59.3
51195;BME280;37259;49.972;19.850;2023-03-24T03:19:13;98100;;;15;59.3
51195;BME280;37259;49.972;19.850;2023-03-24T03:20:11;98100;;;15;59.3
51195;BME280;37259;49.972;19.850;2023-03-24T03:21:10;98100;;;15;59.3
51195;BME280;37259;49.972;19.850;2023-03-24T03:22:11;98100;;;15;59.4
51195;BME280;37259;49.972;19.850;2023-03-24T03:23:10;98100;;;15;59.4
51195;BME280;37259;49.972;19.850;2023-03-24T03:24:11;98100;;;15;59.4
51195;BME280;37259;49.972;19.850;2023-03-24T03:25:10;98100;;;15;59.2
51195;BME280;37259;49.972;19.850;2023-03-24T03:26:11;98100;;;15;59.5
51195;BME280;37259;49.972;19.850;2023-03-24T03:27:10;98100;;;15;59.8
51195;BME280;37259;49.972;19.850;2023-03-24T03:28:10;98100;;;15;59.8
51195;BME280;37259;49.972;19.850;2023-03-24T03:29:10;98100;;;15;59.5
51195;BME280;37259;49.972;19.850;2023-03-24T03:30:11;98100;;;15;59.5
51195;BME280;37259;49.972;19.850;2023-03-24T03:31:10;98110;;;15;59.6
51195;BME280;37259;49.972;19.850;2023-03-24T03:32:13;98110;;;15;59.7
51195;BME280;37259;49.972;19.850;2023-03-24T03:33:11;98110;;;15;59.7
51195;BME280;37259;49.972;19.850;2023-03-24T03:34:10;98110;;;15;59.7
51195;BME280;37259;49.972;19.850;2023-03-24T03:35:11;98110;;;15;59.7
51195;BME280;37259;49.972;19.850;2023-03-24T03:36:12;98110;;;14.9;59.9
51195;BME280;37259;49.972;19.850;2023-03-24T03:37:12;98110;;;14.9;59.9
51195;BME280;37259;49.972;19.850;2023-03-24T03:38:11;98110;;;14.9;59.7
51195;BME280;37259;49.972;19.850;2023-03-24T03:39:10;98110;;;14.9;60
51195;BME280;37259;49.972;19.850;2023-03-24T03:40:10;98110;;;14.9;60.1
51195;BME280;37259;49.972;19.850;2023-03-24T03:41:10;98110;;;14.9;60.1
51195;BME280;37259;49.972;19.850;2023-03-24T03:42:10;98110;;;14.9;59.8
51195;BME280;37259;49.972;19.850;2023-03-24T03:43:10;98100;;;14.9;59.5
51195;BME280;37259;49.972;19.850;2023-03-24T03:44:10;98100;;;14.9;59.7
51195;BME280;37259;49.972;19.850;2023-03-24T03:45:10;98100;;;14.9;59.7
51195;BME280;37259;49.972;19.850;2023-03-24T03:46:10;98100;;;14.9;59.3
51195;BME280;37259;49.972;19.850;2023-03-24T03:47:10;98100;;;14.9;59.3
51195;BME280;37259;49.972;19.850;2023-03-24T03:48:10;98100;;;14.9;59.4
51195;BME280;37259;49.972;19.850;2023-03-24T03:49:10;98100;;;14.9;59.6
51195;BME280;37259;49.972;19.850;2023-03-24T03:50:10;98100;;;14.9;59.6
51195;BME280;37259;49.972;19.850;2023-03-24T03:51:10;98100;;;14.9;59.4
51195;BME280;37259;49.972;19.850;2023-03-24T03:52:10;98100;;;14.9;59.4
51195;BME280;37259;49.972;19.850;2023-03-24T03:53:10;98090;;;14.9;59.8
51195;BME280;37259;49.972;19.850;2023-03-24T03:54:10;98090;;;14.9;59.9
51195;BME280;37259;49.972;19.850;2023-03-24T03:55:10;98090;;;14.9;60.4
51195;BME280;37259;49.972;19.850;2023-03-24T03:56:10;98090;;;14.8;60.5
51195;BME280;37259;49.972;19.850;2023-03-24T03:57:10;98090;;;14.8;60.7
51195;BME280;37259;49.972;19.850;2023-03-24T03:58:09;98090;;;14.8;60.7
51195;BME280;37259;49.972;19.850;2023-03-24T03:59:21;98090;;;14.8;60.6
51195;BME280;37259;49.972;19.850;2023-03-24T04:00:12;98090;;;14.8;60.6
51195;BME280;37259;49.972;19.850;2023-03-24T04:01:10;98090;;;14.8;60.6
51195;BME280;37259;49.972;19.850;2023-03-24T04:02:13;98090;;;14.7;60.6
51195;BME280;37259;49.972;19.850;2023-03-24T04:03:14;98090;;;14.7;60.7
51195;BME280;37259;49.972;19.850;2023-03-24T04:04:14;98090;;;14.7;60.7
51195;BME280;37259;49.972;19.850;2023-03-24T04:05:15;98080;;;14.7;60.8
51195;BME280;37259;49.972;19.850;2023-03-24T04:06:11;98080;;;14.7;60.7
51195;BME280;37259;49.972;19.850;2023-03-24T04:07:11;98080;;;14.7;60.7
51195;BME280;37259;49.972;19.850;2023-03-24T04:08:16;98080;;;14.6;61
51195;BME280;37259;49.972;19.850;2023-03-24T04:09:15;98080;;;14.6;60.9
51195;BME280;37259;49.972;19.850;2023-03-24T04:10:11;98080;;;14.6;60.9
51195;BME280;37259;49.972;19.850;2023-03-24T04:11:17;98080;;;14.6;60.8
51195;BME280;37259;49.972;19.850;2023-03-24T04:12:13;98080;;;14.6;60.8
51195;BME280;37259;49.972;19.850;2023-03-24T04:13:12;98080;;;14.5;60.9
51195;BME280;37259;49.972;19.850;2023-03-24T04:14:12;98080;;;14.5;60.9
51195;BME280;37259;49.972;19.850;2023-03-24T04:15:13;98080;;;14.5;60.9
51195;BME280;37259;49.972;19.850;2023-03-24T04:16:10;98080;;;14.5;60.9
51195;BME280;37259;49.972;19.850;2023-03-24T04:17:11;98080;;;14.5;60.9
51195;BME280;37259;49.972;19.850;2023-03-24T04:18:14;98080;;;14.4;60.8
51195;BME280;37259;49.972;19.850;2023-03-24T04:19:12;98080;;;14.4;60.7
51195;BME280;37259;49.972;19.850;2023-03-24T04:20:10;98080;;;14.4;60.7
51195;BME280;37259;49.972;19.850;2023-03-24T04:21:15;98080;;;14.4;60.9
51195;BME280;37259;49.972;19.850;2023-03-24T04:22:14;98080;;;14.4;60.8
51195;BME280;37259;49.972;19.850;2023-03-24T04:23:11;98080;;;14.4;60.8
51195;BME280;37259;49.972;19.850;2023-03-24T04:24:14;98080;;;14.3;60.8
51195;BME280;37259;49.972;19.850;2023-03-24T04:25:11;98080;;;14.3;60.9
51195;BME280;37259;49.972;19.850;2023-03-24T04:26:12;98080;;;14.3;60.9
51195;BME280;37259;49.972;19.850;2023-03-24T04:27:11;98080;;;14.3;60.9
51195;BME280;37259;49.972;19.850;2023-03-24T04:28:12;98080;;;14.3;60.9
51195;BME280;37259;49.972;19.850;2023-03-24T04:29:11;98080;;;14.2;60.9
51195;BME280;37259;49.972;19.850;2023-03-24T04:30:11;98080;;;14.2;60.9
51195;BME280;37259;49.972;19.850;2023-03-24T04:31:11;98080;;;14.2;60.9
51195;BME280;37259;49.972;19.850;2023-03-24T04:32:11;98080;;;14.2;61
51195;BME280;37259;49.972;19.850;2023-03-24T04:33:11;98080;;;14.2;61
51195;BME280;37259;49.972;19.850;2023-03-24T04:34:10;98080;;;14.2;61.1
51195;BME280;37259;49.972;19.850;2023-03-24T04:35:10;98080;;;14.1;61.3
51195;BME280;37259;49.972;19.850;2023-03-24T04:36:11;98080;;;14.1;61.3
51195;BME280;37259;49.972;19.850;2023-03-24T04:37:10;98090;;;14.1;61.6
51195;BME280;37259;49.972;19.850;2023-03-24T04:38:10;98090;;;14.1;62
51195;BME280;37259;49.972;19.850;2023-03-24T04:39:10;98090;;;14.1;61.9
51195;BME280;37259;49.972;19.850;2023-03-24T04:40:10;98090;;;14.1;61.9
51195;BME280;37259;49.972;19.850;2023-03-24T04:41:09;98090;;;14.2;62.1
51195;BME280;37259;49.972;19.850;2023-03-24T04:42:11;98090;;;14.2;62.1
51195;BME280;37259;49.972;19.850;2023-03-24T04:43:11;98090;;;14.2;62.5
51195;BME280;37259;49.972;19.850;2023-03-24T04:44:10;98090;;;14.3;62.1
51195;BME280;37259;49.972;19.850;2023-03-24T04:45:10;98090;;;14.3;62.1
51195;BME280;37259;49.972;19.850;2023-03-24T04:46:10;98090;;;14.4;62
51195;BME280;37259;49.972;19.850;2023-03-24T04:47:10;98090;;;14.4;61.9
51195;BME280;37259;49.972;19.850;2023-03-24T04:48:09;98090;;;14.4;61.9
51195;BME280;37259;49.972;19.850;2023-03-24T04:49:10;98090;;;14.4;61.7
51195;BME280;37259;49.972;19.850;2023-03-24T04:50:10;98100;;;14.4;61.6
51195;BME280;37259;49.972;19.850;2023-03-24T04:51:10;98100;;;14.4;61.6
51195;BME280;37259;49.972;19.850;2023-03-24T04:52:09;98100;;;14.4;61.6
51195;BME280;37259;49.972;19.850;2023-03-24T04:53:10;98100;;;14.4;61.6
51195;BME280;37259;49.972;19.850;2023-03-24T04:54:10;98100;;;14.4;61.7
51195;BME280;37259;49.972;19.850;2023-03-24T04:55:17;98100;;;14.4;61.7
51195;BME280;37259;49.972;19.850;2023-03-24T04:56:24;98100;;;14.4;62.2
51195;BME280;37259;49.972;19.850;2023-03-24T04:57:09;98100;;;14.4;62.7
51195;BME280;37259;49.972;19.850;2023-03-24T04:58:10;98100;;;14.4;62.9
51195;BME280;37259;49.972;19.850;2023-03-24T04:59:09;98100;;;14.4;62.9
51195;BME280;37259;49.972;19.850;2023-03-24T05:00:10;98100;;;14.4;62.5
51195;BME280;37259;49.972;19.850;2023-03-24T05:01:09;98100;;;14.4;62.6
51195;BME280;37259;49.972;19.850;2023-03-24T05:02:10;98100;;;14.4;62.6
51195;BME280;37259;49.972;19.850;2023-03-24T05:03:10;98100;;;14.4;62.7
51195;BME280;37259;49.972;19.850;2023-03-24T05:04:10;98110;;;14.4;63.1
51195;BME280;37259;49.972;19.850;2023-03-24T05:05:10;98110;;;14.4;63.1
51195;BME280;37259;49.972;19.850;2023-03-24T05:06:10;98100;;;14.4;63.1
51195;BME280;37259;49.972;19.850;2023-03-24T05:07:10;98100;;;14.4;63.1
51195;BME280;37259;49.972;19.850;2023-03-24T05:08:10;98100;;;14.4;63.2
51195;BME280;37259;49.972;19.850;2023-03-24T05:09:10;98110;;;14.4;63.3
51195;BME280;37259;49.972;19.850;2023-03-24T05:10:09;98110;;;14.4;63.3
51195;BME280;37259;49.972;19.850;2023-03-24T05:11:10;98110;;;14.4;63.4
51195;BME280;37259;49.972;19.850;2023-03-24T05:12:10;98110;;;14.4;63.4
51195;BME280;37259;49.972;19.850;2023-03-24T05:13:10;98110;;;14.4;63.4
51195;BME280;37259;49.972;19.850;2023-03-24T05:14:09;98110;;;14.4;64
51195;BME280;37259;49.972;19.850;2023-03-24T05:15:10;98110;;;14.4;64
51195;BME280;37259;49.972;19.850;2023-03-24T05:16:10;98110;;;14.4;64.1
51195;BME280;37259;49.972;19.850;2023-03-24T05:17:10;98110;;;14.4;64.1
51195;BME280;37259;49.972;19.850;2023-03-24T05:18:10;98100;;;14.4;63.9
51195;BME280;37259;49.972;19.850;2023-03-24T05:19:10;98100;;;14.4;63.9
51195;BME280;37259;49.972;19.850;2023-03-24T05:20:10;98110;;;14.4;64.1
51195;BME280;37259;49.972;19.850;2023-03-24T05:21:10;98110;;;14.4;64.1
51195;BME280;37259;49.972;19.850;2023-03-24T05:22:09;98110;;;14.4;63.8
51195;BME280;37259;49.972;19.850;2023-03-24T05:23:10;98110;;;14.4;63.7
51195;BME280;37259;49.972;19.850;2023-03-24T05:24:09;98110;;;14.4;63.7
51195;BME280;37259;49.972;19.850;2023-03-24T05:25:10;98110;;;14.4;63.5
51195;BME280;37259;49.972;19.850;2023-03-24T05:26:10;98110;;;14.4;63.5
51195;BME280;37259;49.972;19.850;2023-03-24T05:27:10;98110;;;14.5;63.3
51195;BME280;37259;49.972;19.850;2023-03-24T05:28:10;98110;;;14.5;63.3
51195;BME280;37259;49.972;19.850;2023-03-24T05:29:09;98110;;;14.5;63.3
51195;BME280;37259;49.972;19.850;2023-03-24T05:30:10;98110;;;14.5;63.3
51195;BME280;37259;49.972;19.850;2023-03-24T05:31:10;98110;;;14.5;63.5
51195;BME280;37259;49.972;19.850;2023-03-24T05:32:10;98110;;;14.5;63.5
51195;BME280;37259;49.972;19.850;2023-03-24T05:33:10;98110;;;14.5;63.7
51195;BME280;37259;49.972;19.850;2023-03-24T05:34:10;98110;;;14.5;63.7
51195;BME280;37259;49.972;19.850;2023-03-24T05:35:10;98110;;;14.5;63.6
51195;BME280;37259;49.972;19.850;2023-03-24T05:36:10;98110;;;14.5;63.4
51195;BME280;37259;49.972;19.850;2023-03-24T05:37:10;98110;;;14.5;63.5
51195;BME280;37259;49.972;19.850;2023-03-24T05:38:10;98110;;;14.5;63.5
51195;BME280;37259;49.972;19.850;2023-03-24T05:39:10;98120;;;14.5;63.4
51195;BME280;37259;49.972;19.850;2023-03-24T05:40:10;98120;;;14.5;63.4